Leavenworth, KS (66043)

6:59 PM CDT on August 30, 2016 (GMT -0500)
Rock Creek Estates | | Change Station

Elev 856 ft 39.23 °N, 94.91 °W | Updated 8 minutes ago

Mostly Cloudy
Mostly Cloudy
84.4 °F
Feels Like 89 °F
N
2.2
Wind Variable Wind from WNW

Today
High -- | Low -- °F
--% Chance of Precip.
Yesterday
High -- | Low -- °F
Precip. -- in
Pressure 30.06 in
Visibility 10.0 miles
Clouds Scattered Clouds 3000 ft
Mostly Cloudy 15000 ft
Mostly Cloudy 20000 ft
Heat Index 89 °F
Dew Point 70 °F
Humidity 63%
Rainfall in
Snow Depth Not available.
6:46 AM 7:52 PM
Waning Crescent, 2% visible
METAR KMCI 302353Z 04007KT 10SM SCT030 BKN150 BKN200 28/21 A3009 RMK AO2 SLP179 T02780211 10300 20278 56004
Pressure 30.06 in
Visibility 10.0 miles
Clouds Scattered Clouds 3000 ft
Mostly Cloudy 15000 ft
Mostly Cloudy 20000 ft
Heat Index 89 °F
Dew Point 70 °F
Humidity 63%
Rainfall in
Snow Depth Not available.
6:46 AM 7:52 PM
Waning Crescent, 2% visible
METAR KMCI 302353Z 04007KT 10SM SCT030 BKN150 BKN200 28/21 A3009 RMK AO2 SLP179 T02780211 10300 20278 56004

10-Day Weather Forecast

Almanac

Astronomy

Aug. 30, 2016 Rise Set
Actual Time
Civil Twilight
Nautical Twilight
Astronomical Twilight
Moon
Length of Visible Light
Length of Day
Tomorrow will be .
, % of the Moon is Illuminated

Today's Extremes

State Highs State Lows

Community

WunderPhotos

Upload Photos

1,935,947 photos uploaded!

WunderBlog® & News

Nearby

Air Quality

  Air Quality AQ Index Pollutant
Not available.

Snow Depth

Station Depth Elevation

Earthquake Activity

City Distance Mag. Time & Date
Minimum magnitude displayed is 2.5.

Coastal Water Temperatures

Place Temperature

Stations

Nearby Weather Stations

Station Location Temp. Windchill Dew Point Humidity Wind Precip. Elev Updated Type
                   

Watches & Warnings

There are currently no watches in effect.